createdAt,value
2022-11-29T00:00:58.539Z,102132.69
2022-11-29T00:04:01.527Z,102149.19
2022-11-29T00:07:03.646Z,102130.41
2022-11-29T00:10:06.357Z,102142.78
2022-11-29T00:13:08.398Z,102151.19
2022-11-29T00:16:12.419Z,102111.81
2022-11-29T00:19:14.475Z,102081.00
2022-11-29T00:22:16.541Z,102130.00
2022-11-29T00:25:18.705Z,102109.38
2022-11-29T00:28:20.841Z,102122.75
2022-11-29T00:31:26.509Z,102132.84
2022-11-29T00:34:29.031Z,102129.28
2022-11-29T00:37:31.189Z,102137.41
2022-11-29T00:40:33.184Z,102145.19
2022-11-29T00:43:35.793Z,102133.13
2022-11-29T00:46:38.286Z,102139.69
2022-11-29T00:49:40.442Z,102123.75
2022-11-29T00:52:42.419Z,102133.72
2022-11-29T00:55:50.505Z,102127.75
2022-11-29T00:58:52.603Z,102130.97
2022-11-29T01:01:54.682Z,102116.50
2022-11-29T01:04:56.682Z,102116.50
2022-11-29T01:07:58.947Z,102125.13
2022-11-29T01:11:25.582Z,102122.56
2022-11-29T01:14:27.655Z,102119.59
2022-11-29T01:17:34.748Z,102083.03
2022-11-29T01:20:36.809Z,102109.66
2022-11-29T01:23:39.455Z,102101.13
2022-11-29T01:26:42.135Z,102105.69
2022-11-29T01:29:45.147Z,102083.13
2022-11-29T01:32:47.203Z,102101.16
2022-11-29T01:35:54.451Z,102102.16
2022-11-29T01:38:56.588Z,102090.09
2022-11-29T01:42:00.201Z,102091.50
2022-11-29T01:45:04.615Z,102098.59
2022-11-29T01:48:06.754Z,102102.53
2022-11-29T01:51:08.808Z,102096.84
2022-11-29T01:54:12.490Z,102106.06
2022-11-29T01:57:14.745Z,102109.34
2022-11-29T02:00:18.734Z,102071.81
2022-11-29T02:03:21.893Z,102092.28
2022-11-29T02:06:24.389Z,102104.91
2022-11-29T02:09:26.710Z,102091.81
2022-11-29T02:12:52.889Z,102106.66
2022-11-29T02:16:09.317Z,102100.84
2022-11-29T02:19:43.959Z,102105.53
2022-11-29T02:23:07.350Z,102108.53
2022-11-29T02:26:12.288Z,102106.25
2022-11-29T02:29:33.817Z,102102.44
2022-11-29T02:32:44.785Z,102095.47
2022-11-29T02:35:57.224Z,102085.03
2022-11-29T02:39:24.503Z,102103.19
2022-11-29T02:43:02.669Z,102102.03
2022-11-29T02:46:49.845Z,102087.13
2022-11-29T02:50:16.286Z,102104.56
2022-11-29T02:53:35.590Z,102101.66
2022-11-29T02:56:46.554Z,102105.03
2022-11-29T03:00:05.239Z,102098.66
2022-11-29T03:03:14.800Z,102099.25
2022-11-29T03:06:26.164Z,102107.25
2022-11-29T03:09:46.630Z,102098.84
2022-11-29T03:12:53.129Z,102092.72
2022-11-29T03:16:18.049Z,102080.38
2022-11-29T03:19:57.200Z,102107.34
2022-11-29T03:23:14.322Z,102100.03
2022-11-29T03:26:24.930Z,102112.66
2022-11-29T03:29:35.777Z,102069.13
2022-11-29T03:32:55.858Z,102113.41
2022-11-29T03:36:14.535Z,102106.91
2022-11-29T03:39:30.345Z,102114.69
2022-11-29T03:42:40.060Z,102119.72
2022-11-29T03:45:49.475Z,102120.22
2022-11-29T03:49:00.686Z,102117.94
2022-11-29T03:52:21.589Z,102121.25
2022-11-29T03:55:57.189Z,102131.03
2022-11-29T03:59:24.761Z,102131.50
2022-11-29T04:02:48.656Z,102114.44
2022-11-29T04:05:50.632Z,102128.75
2022-11-29T04:09:21.487Z,102123.38
2022-11-29T04:12:49.148Z,102145.28
2022-11-29T04:16:44.551Z,102142.41
2022-11-29T04:20:10.732Z,102138.06
2022-11-29T04:23:51.140Z,102153.09
2022-11-29T04:27:23.977Z,102146.28
2022-11-29T04:30:28.406Z,102147.69
2022-11-29T04:34:04.169Z,102149.50
2022-11-29T04:37:15.033Z,102146.41
2022-11-29T04:40:44.557Z,102152.81
2022-11-29T04:44:07.716Z,102144.47
2022-11-29T04:47:52.668Z,102153.25
2022-11-29T04:50:58.760Z,102160.75
2022-11-29T04:54:35.705Z,102158.16
2022-11-29T04:57:47.516Z,102165.28
2022-11-29T05:01:19.225Z,102149.41
2022-11-29T05:04:36.674Z,102159.31
2022-11-29T05:08:07.624Z,102169.16
2022-11-29T05:11:09.888Z,102173.38
2022-11-29T05:14:56.592Z,102177.06
2022-11-29T05:18:43.324Z,102194.59
2022-11-29T05:22:11.843Z,102190.47
2022-11-29T05:25:31.703Z,102190.84
2022-11-29T05:28:54.221Z,102194.38
2022-11-29T05:32:21.804Z,102164.84
2022-11-29T05:35:40.582Z,102159.66
2022-11-29T05:39:01.947Z,102158.19
2022-11-29T05:42:21.967Z,102179.16
2022-11-29T05:45:31.094Z,102181.78
2022-11-29T05:49:01.246Z,102167.94
2022-11-29T05:52:25.199Z,102188.59
2022-11-29T05:55:30.051Z,102193.53
2022-11-29T05:58:58.639Z,102189.22
2022-11-29T06:02:09.982Z,102180.00
2022-11-29T06:05:33.911Z,102193.53
2022-11-29T06:08:58.698Z,102183.97
2022-11-29T06:12:06.956Z,102175.75
2022-11-29T06:15:19.690Z,102185.03
2022-11-29T06:18:46.354Z,102193.66
2022-11-29T06:22:07.272Z,102193.69
2022-11-29T06:25:39.498Z,102195.25
2022-11-29T06:29:18.638Z,102185.66
2022-11-29T06:32:45.407Z,102202.09
2022-11-29T06:36:07.961Z,102201.56
2022-11-29T06:39:11.094Z,102207.78
2022-11-29T06:42:13.366Z,102160.13
2022-11-29T06:45:17.248Z,102205.34
2022-11-29T06:48:26.336Z,102211.38
2022-11-29T06:52:02.366Z,102217.28
2022-11-29T06:55:22.979Z,102208.31
2022-11-29T06:58:52.273Z,102208.28
2022-11-29T07:02:20.505Z,102189.59
2022-11-29T07:05:33.690Z,102193.78
2022-11-29T07:08:35.924Z,102197.88
2022-11-29T07:11:38.453Z,102204.19
2022-11-29T07:14:40.899Z,102203.34
2022-11-29T07:18:30.316Z,102205.06
2022-11-29T07:21:44.244Z,102207.47
2022-11-29T07:25:02.164Z,102195.63
2022-11-29T07:28:27.361Z,102202.09
2022-11-29T07:31:51.262Z,102211.53
2022-11-29T07:35:35.288Z,102207.97
2022-11-29T07:39:05.509Z,102185.75
2022-11-29T07:42:10.522Z,102202.25
2022-11-29T07:45:23.896Z,102214.97
2022-11-29T07:48:27.086Z,102209.03
2022-11-29T07:51:29.459Z,102213.53
2022-11-29T07:54:31.689Z,102200.03
2022-11-29T07:57:36.755Z,102208.91
2022-11-29T08:00:39.875Z,102200.41
2022-11-29T08:03:43.331Z,102204.00
2022-11-29T08:06:45.391Z,102210.72
2022-11-29T08:09:47.600Z,102209.97
2022-11-29T08:12:51.158Z,102216.50
2022-11-29T08:15:53.294Z,102214.44
2022-11-29T08:18:55.544Z,102204.97
2022-11-29T08:21:57.760Z,102214.81
2022-11-29T08:25:00.287Z,102215.72
2022-11-29T08:28:03.991Z,102219.38
2022-11-29T08:31:08.268Z,102210.69
2022-11-29T08:34:10.951Z,102212.69
2022-11-29T08:37:12.991Z,102220.69
2022-11-29T08:40:16.073Z,102208.06
2022-11-29T08:43:18.056Z,102190.81
2022-11-29T08:46:20.801Z,102175.84
2022-11-29T08:49:23.245Z,102177.59
2022-11-29T08:52:46.950Z,102186.44
2022-11-29T08:55:50.717Z,102193.38
2022-11-29T08:58:54.193Z,102194.69
2022-11-29T09:01:56.350Z,102200.00
2022-11-29T09:04:58.369Z,102157.25
2022-11-29T09:08:00.626Z,102174.78
2022-11-29T09:11:15.614Z,102178.38
2022-11-29T09:14:18.344Z,102177.16
2022-11-29T09:17:20.617Z,102171.44
2022-11-29T09:20:22.731Z,102173.84
2022-11-29T09:23:25.467Z,102179.88
2022-11-29T09:26:32.231Z,102188.63
2022-11-29T09:29:34.273Z,102184.19
2022-11-29T09:32:36.420Z,102186.19
2022-11-29T09:35:38.511Z,102157.63
2022-11-29T09:38:40.900Z,102184.84
2022-11-29T09:41:57.312Z,102166.13
2022-11-29T09:45:07.733Z,102158.00
2022-11-29T09:48:15.911Z,102172.44
2022-11-29T09:51:28.150Z,102173.53
2022-11-29T09:54:41.784Z,102173.25
2022-11-29T09:57:45.004Z,102177.00
2022-11-29T10:01:03.776Z,102178.75
2022-11-29T10:04:12.582Z,102171.09
2022-11-29T10:07:22.650Z,102169.72
2022-11-29T10:10:40.980Z,102164.47
2022-11-29T10:13:49.085Z,102160.03
2022-11-29T10:17:06.396Z,102157.00
2022-11-29T10:20:19.074Z,102159.03
2022-11-29T10:23:44.457Z,102159.03
2022-11-29T10:26:46.912Z,102148.66
2022-11-29T10:29:51.290Z,102144.03
2022-11-29T10:33:02.811Z,102149.50
2022-11-29T10:36:29.134Z,102148.66
2022-11-29T10:39:46.228Z,102145.78
2022-11-29T10:42:55.408Z,102143.22
2022-11-29T10:45:58.937Z,102133.94
2022-11-29T10:49:13.461Z,102138.53
2022-11-29T10:52:22.227Z,102138.47
2022-11-29T10:55:26.405Z,102137.50
2022-11-29T10:58:31.263Z,102131.69
2022-11-29T11:01:38.696Z,102128.44
2022-11-29T11:04:47.061Z,102138.47
2022-11-29T11:07:57.869Z,102117.16
2022-11-29T11:11:02.185Z,102119.88
2022-11-29T11:14:18.393Z,102125.72
2022-11-29T11:17:33.105Z,102137.09
2022-11-29T11:20:38.277Z,102132.97
2022-11-29T11:23:58.188Z,102136.97
2022-11-29T11:27:01.250Z,102139.16
2022-11-29T11:30:07.203Z,102136.19
2022-11-29T11:33:22.185Z,102143.69
2022-11-29T11:36:28.033Z,102131.81
2022-11-29T11:39:30.236Z,102109.78
2022-11-29T11:42:38.555Z,102127.06
2022-11-29T11:45:40.570Z,102139.34
2022-11-29T11:48:42.692Z,102129.81
2022-11-29T11:51:44.748Z,102134.22
2022-11-29T11:55:00.559Z,102134.16
2022-11-29T11:58:12.454Z,102122.53
2022-11-29T12:01:24.754Z,102125.72
2022-11-29T12:04:38.140Z,102134.34
2022-11-29T12:08:11.065Z,102137.66
2022-11-29T12:11:17.733Z,102140.84
2022-11-29T12:14:48.591Z,102139.53
2022-11-29T12:18:00.539Z,102138.03
2022-11-29T12:21:18.103Z,102139.16
2022-11-29T12:24:29.482Z,102138.94
2022-11-29T12:27:32.140Z,102128.09
2022-11-29T12:30:34.698Z,102104.78
2022-11-29T12:34:10.206Z,102131.19
2022-11-29T12:37:38.219Z,102130.13
2022-11-29T12:41:17.737Z,102130.88
2022-11-29T12:44:53.908Z,102128.16
2022-11-29T12:48:18.901Z,102124.00
2022-11-29T12:51:21.003Z,102135.88
2022-11-29T12:54:46.377Z,102127.41
2022-11-29T12:57:52.931Z,102137.63
2022-11-29T13:01:21.959Z,102133.50
2022-11-29T13:04:59.751Z,102142.63
2022-11-29T13:08:37.579Z,102140.31
2022-11-29T13:12:02.123Z,102135.38
2022-11-29T13:15:17.806Z,102139.00
2022-11-29T13:18:35.695Z,102137.13
2022-11-29T13:21:44.055Z,102127.66
2022-11-29T13:24:53.651Z,102149.03
2022-11-29T13:28:03.327Z,102150.81
2022-11-29T13:31:09.758Z,102157.50
2022-11-29T13:34:26.886Z,102155.97
2022-11-29T13:37:47.456Z,102135.00
2022-11-29T13:41:28.101Z,102155.47
2022-11-29T13:44:37.201Z,102157.88
2022-11-29T13:47:49.686Z,102165.66
2022-11-29T13:50:51.826Z,102153.63
2022-11-29T13:53:58.053Z,102151.00
2022-11-29T13:57:08.765Z,102165.97
2022-11-29T14:00:33.869Z,102174.56
2022-11-29T14:03:39.720Z,102164.34
2022-11-29T14:06:41.789Z,102177.06
2022-11-29T14:09:49.698Z,102161.75
2022-11-29T14:12:56.977Z,102155.97
2022-11-29T14:16:03.550Z,102150.19
2022-11-29T14:19:08.449Z,102158.16
2022-11-29T14:22:13.339Z,102160.78
2022-11-29T14:28:48.408Z,102156.81
2022-11-29T14:31:52.148Z,102156.50
2022-11-29T14:35:12.443Z,102159.09
2022-11-29T14:38:38.368Z,102156.09
2022-11-29T14:42:01.345Z,102120.19
2022-11-29T14:45:06.498Z,102145.59
2022-11-29T14:48:32.136Z,102166.66
2022-11-29T14:51:35.313Z,102163.75
2022-11-29T14:54:54.386Z,102157.34
2022-11-29T14:58:19.156Z,102164.31
2022-11-29T15:01:21.341Z,102165.53
2022-11-29T15:04:29.024Z,102158.84
2022-11-29T15:07:32.946Z,102156.31
2022-11-29T15:10:41.017Z,102164.75
2022-11-29T15:13:56.017Z,102161.22
2022-11-29T15:21:03.662Z,102163.19
2022-11-29T15:24:51.307Z,102160.13
2022-11-29T15:27:55.721Z,102156.00
2022-11-29T15:31:23.153Z,102171.03
2022-11-29T15:34:41.905Z,102169.16
2022-11-29T15:41:47.985Z,102177.91
2022-11-29T15:44:53.537Z,102176.72
2022-11-29T15:48:26.072Z,102172.19
2022-11-29T15:51:36.422Z,102174.19
2022-11-29T15:54:48.113Z,102176.19
2022-11-29T15:57:56.091Z,102159.53
2022-11-29T16:01:02.063Z,102161.38
2022-11-29T16:04:04.941Z,102185.56
2022-11-29T16:07:11.219Z,102191.16
2022-11-29T16:10:21.618Z,102181.28
2022-11-29T16:13:34.927Z,102182.59
2022-11-29T16:16:38.966Z,102194.25
2022-11-29T16:19:43.608Z,102181.38
2022-11-29T16:22:47.578Z,102181.19
2022-11-29T16:26:07.258Z,102186.13
2022-11-29T16:29:41.753Z,102192.44
2022-11-29T16:32:53.230Z,102184.66
2022-11-29T16:36:28.067Z,102186.69
2022-11-29T16:39:35.396Z,102173.56
2022-11-29T16:42:38.990Z,102178.38
2022-11-29T16:45:43.040Z,102183.03
2022-11-29T16:48:45.124Z,102185.75
2022-11-29T16:51:48.810Z,102192.53
2022-11-29T16:54:52.407Z,102189.44
2022-11-29T16:57:56.114Z,102198.16
2022-11-29T17:00:59.227Z,102183.75
2022-11-29T17:04:02.248Z,102202.47
2022-11-29T17:07:11.077Z,102197.47
2022-11-29T17:10:19.767Z,102203.66
2022-11-29T17:13:21.971Z,102189.69
2022-11-29T17:16:25.868Z,102213.75
2022-11-29T17:19:29.852Z,102206.56
2022-11-29T17:22:37.817Z,102212.56
2022-11-29T17:29:05.696Z,102209.75
2022-11-29T17:32:07.816Z,102225.94
2022-11-29T17:35:35.154Z,102221.19
2022-11-29T17:38:37.356Z,102203.03
2022-11-29T17:41:39.356Z,102218.22
2022-11-29T17:44:42.661Z,102223.00
2022-11-29T17:47:44.721Z,102238.31
2022-11-29T17:50:52.288Z,102228.44
2022-11-29T17:54:00.140Z,102234.72
2022-11-29T17:57:05.035Z,102225.25
2022-11-29T18:00:09.048Z,102228.84
2022-11-29T18:03:15.797Z,102233.59
2022-11-29T18:06:43.592Z,102241.94
2022-11-29T18:09:59.070Z,102243.97
2022-11-29T18:13:01.171Z,102242.28
2022-11-29T18:16:18.978Z,102230.91
2022-11-29T18:19:25.752Z,102238.72
2022-11-29T18:22:30.632Z,102255.72
2022-11-29T18:25:40.312Z,102239.94
2022-11-29T18:28:46.890Z,102254.13
2022-11-29T18:31:55.961Z,102242.53
2022-11-29T18:35:00.172Z,102248.47
2022-11-29T18:38:18.899Z,102269.78
2022-11-29T18:41:28.447Z,102267.53
2022-11-29T18:44:32.611Z,102254.13
2022-11-29T18:47:37.763Z,102247.31
2022-11-29T18:50:39.996Z,102259.34
2022-11-29T18:53:43.228Z,102249.56
2022-11-29T18:56:47.154Z,102268.75
2022-11-29T18:59:50.559Z,102259.22
2022-11-29T19:02:54.032Z,102267.50
2022-11-29T19:05:58.943Z,102265.72
2022-11-29T19:09:01.485Z,102239.59
2022-11-29T19:12:05.402Z,102251.13
2022-11-29T19:15:09.211Z,102260.78
2022-11-29T19:18:11.234Z,102259.94
2022-11-29T19:21:18.102Z,102273.16
2022-11-29T19:24:20.943Z,102243.44
2022-11-29T19:27:50.378Z,102255.94
2022-11-29T19:30:56.216Z,102264.94
2022-11-29T19:34:01.181Z,102264.94
2022-11-29T19:37:04.212Z,102258.25
2022-11-29T19:40:11.185Z,102253.94
2022-11-29T19:43:13.296Z,102267.69
2022-11-29T19:46:20.908Z,102273.44
2022-11-29T19:49:23.091Z,102265.81
2022-11-29T19:52:25.701Z,102253.59
2022-11-29T19:55:27.747Z,102265.41
2022-11-29T19:58:30.223Z,102273.88
2022-11-29T20:01:40.291Z,102275.78
2022-11-29T20:04:54.593Z,102260.47
2022-11-29T20:07:56.707Z,102257.50
2022-11-29T20:11:18.499Z,102279.84
2022-11-29T20:14:20.846Z,102272.34
2022-11-29T20:17:22.930Z,102267.34
2022-11-29T20:20:29.708Z,102273.31
2022-11-29T20:23:33.583Z,102280.75
2022-11-29T20:26:42.185Z,102281.03
2022-11-29T20:29:44.675Z,102276.75
2022-11-29T20:32:47.096Z,102257.69
2022-11-29T20:36:13.058Z,102269.94
2022-11-29T20:39:52.300Z,102283.72
2022-11-29T20:43:20.647Z,102275.06
2022-11-29T20:46:28.209Z,102270.75
2022-11-29T20:49:32.586Z,102272.06
2022-11-29T20:52:51.813Z,102277.31
2022-11-29T20:55:55.443Z,102267.91
2022-11-29T20:58:57.513Z,102254.38
2022-11-29T21:02:01.508Z,102275.44
2022-11-29T21:05:04.333Z,102261.34
2022-11-29T21:08:07.775Z,102282.34
2022-11-29T21:11:13.686Z,102278.50
2022-11-29T21:14:18.557Z,102275.13
2022-11-29T21:17:20.844Z,102279.16
2022-11-29T21:20:26.105Z,102290.53
2022-11-29T21:23:57.389Z,102294.38
2022-11-29T21:26:59.832Z,102281.88
2022-11-29T21:30:05.581Z,102272.91
2022-11-29T21:33:08.332Z,102279.56
2022-11-29T21:36:13.318Z,102257.06
2022-11-29T21:39:16.728Z,102272.16
2022-11-29T21:42:18.841Z,102259.84
2022-11-29T21:45:20.985Z,102267.94
2022-11-29T21:48:35.217Z,102262.72
2022-11-29T21:51:38.292Z,102284.47
2022-11-29T21:54:40.517Z,102275.97
2022-11-29T21:57:42.587Z,102265.88
2022-11-29T22:00:45.724Z,102278.97
2022-11-29T22:03:48.305Z,102259.47
2022-11-29T22:06:50.528Z,102250.97
2022-11-29T22:09:52.976Z,102251.53
2022-11-29T22:12:55.494Z,102269.59
2022-11-29T22:16:08.811Z,102262.78
2022-11-29T22:19:12.607Z,102253.09
2022-11-29T22:22:14.757Z,102253.41
2022-11-29T22:25:16.698Z,102254.25
2022-11-29T22:28:18.854Z,102254.53
2022-11-29T22:31:20.906Z,102254.53
2022-11-29T22:34:25.336Z,102262.78
2022-11-29T22:37:28.289Z,102255.97
2022-11-29T22:40:30.440Z,102257.94
2022-11-29T22:43:36.275Z,102257.50
2022-11-29T22:46:41.120Z,102273.63
2022-11-29T22:49:44.712Z,102263.66
2022-11-29T22:52:46.838Z,102259.53
2022-11-29T22:55:49.158Z,102252.84
2022-11-29T22:58:51.461Z,102244.72
2022-11-29T23:01:53.567Z,102238.19
2022-11-29T23:04:55.629Z,102233.31
2022-11-29T23:07:58.550Z,102209.81
2022-11-29T23:11:04.433Z,102247.78
2022-11-29T23:14:06.488Z,102245.78
2022-11-29T23:17:08.571Z,102223.00
2022-11-29T23:20:11.070Z,102228.41
2022-11-29T23:23:13.249Z,102233.91
2022-11-29T23:26:30.514Z,102228.97
2022-11-29T23:29:32.629Z,102223.44
2022-11-29T23:32:34.899Z,102214.94
2022-11-29T23:35:37.129Z,102211.63
2022-11-29T23:38:39.253Z,102232.97
2022-11-29T23:41:41.371Z,102208.38
2022-11-29T23:44:45.215Z,102237.50
2022-11-29T23:47:48.849Z,102228.72
2022-11-29T23:50:51.337Z,102238.16
2022-11-29T23:53:54.279Z,102224.03
2022-11-29T23:56:56.389Z,102225.88
2022-11-29T23:59:59.058Z,102227.91
